Buechel, Kentucky
Current Conditions -  °F | °C
As of 5:20 PM on Sunday 23 Nov 2014 (Local Time) from KLOU Reporting Station
Moderate Rain Moderate Rain  
Wind Chill: 54°   Ceiling: 1000
Heat Index: 54°   Visibility: 4mi
Dew Point: 52°   Wind: 10mph
Humidity: 93%   Direction: 130°SE
Pressure: 29.49"   Gusts: NA
Location:  38.1869°N, 85.6523°W
Report Text: KLOU 232220Z 13009KT 4SM RA BR BKN010 OVC015 12/11 A2949 RMK AO2 P0012 T01220111
Loading
Personal Weather Stations






























Interactive Weather Map New forecast layout! Learn more

10-Day Weather Forecast

Advertisements
Track Severe Weather on mobile